createdAt,value
2023-05-23T00:02:15.814Z,79.70
2023-05-23T00:04:42.427Z,79.50
2023-05-23T00:07:08.947Z,79.50
2023-05-23T00:09:35.496Z,79.90
2023-05-23T00:12:02.015Z,79.80
2023-05-23T00:14:28.579Z,79.20
2023-05-23T00:16:55.157Z,79.00
2023-05-23T00:19:21.789Z,78.60
2023-05-23T00:21:48.345Z,78.60
2023-05-23T00:24:14.890Z,78.20
2023-05-23T00:26:41.443Z,78.50
2023-05-23T00:29:07.989Z,79.00
2023-05-23T00:31:34.660Z,78.30
2023-05-23T00:34:01.309Z,77.60
2023-05-23T00:36:27.856Z,77.00
2023-05-23T00:38:54.368Z,77.20
2023-05-23T00:41:20.899Z,77.10
2023-05-23T00:43:47.417Z,77.50
2023-05-23T00:46:14.001Z,76.50
2023-05-23T00:48:40.580Z,76.20
2023-05-23T00:51:07.123Z,76.60
2023-05-23T00:53:33.647Z,76.60
2023-05-23T00:56:00.207Z,76.00
2023-05-23T00:58:26.748Z,76.20
2023-05-23T01:00:53.296Z,75.80
2023-05-23T01:03:19.908Z,75.90
2023-05-23T01:05:46.571Z,75.80
2023-05-23T01:08:13.091Z,75.50
2023-05-23T01:10:39.622Z,75.60
2023-05-23T01:13:06.161Z,75.30
2023-05-23T01:15:32.688Z,75.90
2023-05-23T01:17:59.285Z,75.50
2023-05-23T01:20:25.821Z,75.50
2023-05-23T01:22:52.359Z,75.50
2023-05-23T01:25:18.876Z,75.30
2023-05-23T01:27:45.428Z,75.50
2023-05-23T01:30:11.938Z,75.10
2023-05-23T01:32:38.479Z,75.00
2023-05-23T01:35:05.018Z,74.90
2023-05-23T01:37:31.631Z,75.10
2023-05-23T01:39:58.143Z,74.80
2023-05-23T01:42:24.691Z,74.80
2023-05-23T01:44:51.199Z,74.90
2023-05-23T01:47:17.751Z,74.80
2023-05-23T01:49:44.257Z,74.80
2023-05-23T01:52:10.801Z,74.90
2023-05-23T01:54:37.332Z,75.20
2023-05-23T01:57:03.873Z,75.50
2023-05-23T01:59:30.412Z,75.00
2023-05-23T02:01:56.961Z,74.90
2023-05-23T02:04:23.494Z,74.80
2023-05-23T02:06:50.039Z,74.70
2023-05-23T02:09:16.542Z,74.80
2023-05-23T02:11:43.075Z,74.70
2023-05-23T02:14:09.605Z,74.70
2023-05-23T02:16:39.487Z,74.50
2023-05-23T02:19:06.098Z,74.70
2023-05-23T02:21:35.255Z,74.50
2023-05-23T02:24:02.252Z,74.60
2023-05-23T02:26:28.790Z,74.40
2023-05-23T02:28:55.338Z,74.20
2023-05-23T02:31:21.899Z,74.40
2023-05-23T02:33:48.501Z,74.40
2023-05-23T02:36:15.036Z,74.20
2023-05-23T02:38:41.590Z,74.20
2023-05-23T02:41:08.130Z,74.00
2023-05-23T02:43:34.691Z,74.10
2023-05-23T02:46:01.231Z,74.30
2023-05-23T02:48:27.785Z,74.20
2023-05-23T02:50:54.464Z,74.20
2023-05-23T02:53:20.998Z,74.30
2023-05-23T02:55:47.525Z,74.00
2023-05-23T02:58:14.064Z,74.30
2023-05-23T03:00:40.650Z,74.20
2023-05-23T03:03:07.344Z,74.60
2023-05-23T03:05:34.068Z,74.50
2023-05-23T03:08:00.732Z,74.40
2023-05-23T03:10:27.452Z,74.40
2023-05-23T03:12:54.119Z,74.10
2023-05-23T03:15:20.772Z,74.20
2023-05-23T03:17:47.531Z,74.20
2023-05-23T03:20:14.251Z,74.10
2023-05-23T03:22:40.909Z,74.00
2023-05-23T03:25:07.568Z,74.10
2023-05-23T03:27:34.226Z,74.10
2023-05-23T03:30:00.897Z,74.00
2023-05-23T03:32:27.600Z,74.00
2023-05-23T03:34:54.283Z,73.90
2023-05-23T03:37:20.936Z,74.20
2023-05-23T03:39:47.620Z,74.20
2023-05-23T03:42:14.260Z,74.20
2023-05-23T03:44:40.935Z,74.70
2023-05-23T03:47:07.578Z,74.60
2023-05-23T03:49:34.250Z,74.60
2023-05-23T03:52:00.906Z,74.50
2023-05-23T03:54:27.578Z,74.30
2023-05-23T03:56:54.229Z,74.00
2023-05-23T03:59:20.889Z,74.40
2023-05-23T04:01:47.531Z,74.50
2023-05-23T04:04:14.263Z,74.30
2023-05-23T04:06:41.032Z,75.00
2023-05-23T04:09:07.748Z,74.50
2023-05-23T04:11:34.414Z,74.10
2023-05-23T04:14:01.088Z,74.00
2023-05-23T04:16:27.848Z,73.90
2023-05-23T04:18:54.591Z,73.90
2023-05-23T04:21:21.286Z,73.80
2023-05-23T04:23:47.847Z,73.60
2023-05-23T04:26:14.381Z,73.60
2023-05-23T04:28:40.902Z,73.40
2023-05-23T04:31:07.481Z,74.10
2023-05-23T04:33:34.041Z,74.30
2023-05-23T04:36:00.964Z,74.50
2023-05-23T04:38:27.474Z,75.00
2023-05-23T04:40:54.042Z,75.10
2023-05-23T04:43:20.615Z,75.20
2023-05-23T04:45:47.176Z,74.90
2023-05-23T04:48:13.775Z,75.10
2023-05-23T04:50:40.342Z,74.90
2023-05-23T04:53:06.856Z,74.20
2023-05-23T04:55:33.509Z,74.60
2023-05-23T04:58:00.230Z,75.00
2023-05-23T05:00:26.790Z,74.60
2023-05-23T05:02:53.416Z,74.30
2023-05-23T05:05:20.000Z,74.00
2023-05-23T05:07:46.502Z,73.90
2023-05-23T05:10:13.067Z,74.10
2023-05-23T05:12:39.572Z,74.50
2023-05-23T05:15:06.106Z,74.30
2023-05-23T05:17:32.664Z,74.40
2023-05-23T05:19:59.195Z,74.50
2023-05-23T05:22:25.811Z,74.60
2023-05-23T05:24:52.345Z,74.60
2023-05-23T05:27:18.870Z,74.10
2023-05-23T05:29:45.675Z,74.50
2023-05-23T05:32:12.226Z,74.00
2023-05-23T05:34:38.755Z,74.60
2023-05-23T05:37:05.321Z,74.60
2023-05-23T05:39:31.854Z,74.90
2023-05-23T05:41:58.369Z,75.30
2023-05-23T05:44:24.879Z,74.80
2023-05-23T05:46:51.431Z,74.80
2023-05-23T05:49:17.961Z,75.10
2023-05-23T05:51:44.484Z,74.80
2023-05-23T05:54:11.035Z,74.50
2023-05-23T05:56:37.579Z,74.60
2023-05-23T05:59:04.085Z,74.90
2023-05-23T06:01:30.607Z,74.50
2023-05-23T06:03:57.298Z,75.00
2023-05-23T06:06:23.918Z,75.10
2023-05-23T06:08:50.429Z,75.00
2023-05-23T06:11:16.967Z,74.90
2023-05-23T06:13:43.513Z,74.60
2023-05-23T06:16:10.056Z,74.60
2023-05-23T06:18:36.611Z,74.70
2023-05-23T06:21:03.138Z,75.10
2023-05-23T06:23:29.696Z,75.20
2023-05-23T06:25:56.224Z,74.50
2023-05-23T06:28:22.782Z,74.00
2023-05-23T06:30:49.306Z,73.50
2023-05-23T06:33:15.841Z,73.40
2023-05-23T06:35:42.376Z,73.20
2023-05-23T06:38:11.737Z,73.70
2023-05-23T06:40:38.380Z,74.00
2023-05-23T06:43:05.003Z,73.50
2023-05-23T06:45:31.546Z,73.20
2023-05-23T06:47:58.190Z,73.10
2023-05-23T06:50:24.713Z,73.00
2023-05-23T06:52:51.256Z,73.00
2023-05-23T06:55:17.798Z,73.00
2023-05-23T06:57:44.320Z,72.70
2023-05-23T07:00:10.838Z,72.50
2023-05-23T07:02:37.365Z,72.90
2023-05-23T07:05:03.908Z,72.90
2023-05-23T07:07:30.469Z,73.00
2023-05-23T07:09:56.991Z,72.70
2023-05-23T07:12:23.536Z,72.60
2023-05-23T07:14:50.088Z,73.00
2023-05-23T07:17:16.757Z,73.20
2023-05-23T07:19:43.386Z,73.20
2023-05-23T07:22:09.903Z,74.20
2023-05-23T07:24:36.421Z,73.10
2023-05-23T07:27:03.709Z,73.00
2023-05-23T07:29:30.281Z,72.70
2023-05-23T07:31:56.913Z,72.70
2023-05-23T07:34:23.465Z,72.80
2023-05-23T07:36:50.006Z,72.70
2023-05-23T07:39:16.560Z,73.00
2023-05-23T07:41:43.080Z,73.40
2023-05-23T07:44:09.650Z,73.20
2023-05-23T07:46:36.204Z,73.30
2023-05-23T07:49:02.755Z,73.40
2023-05-23T07:51:29.304Z,73.10
2023-05-23T07:53:55.829Z,73.50
2023-05-23T07:56:22.365Z,73.10
2023-05-23T07:58:48.920Z,73.20
2023-05-23T08:01:15.438Z,73.10
2023-05-23T08:03:41.967Z,73.30
2023-05-23T08:06:08.473Z,73.10
2023-05-23T08:08:35.005Z,73.20
2023-05-23T08:11:01.543Z,73.20
2023-05-23T08:13:28.096Z,73.30
2023-05-23T08:15:54.632Z,73.40
2023-05-23T08:18:21.217Z,73.40
2023-05-23T08:20:47.731Z,73.50
2023-05-23T08:23:14.250Z,73.80
2023-05-23T08:25:40.778Z,73.20
2023-05-23T08:28:07.296Z,73.10
2023-05-23T08:30:33.833Z,73.10
2023-05-23T08:33:00.412Z,73.80
2023-05-23T08:35:26.968Z,73.40
2023-05-23T08:37:53.524Z,72.40
2023-05-23T08:40:21.953Z,72.20
2023-05-23T08:42:48.650Z,72.30
2023-05-23T08:45:15.236Z,72.50
2023-05-23T08:47:41.802Z,72.80
2023-05-23T08:50:08.447Z,72.60
2023-05-23T08:52:35.000Z,72.90
2023-05-23T08:55:01.569Z,72.90
2023-05-23T08:57:28.089Z,72.80
2023-05-23T08:59:54.750Z,72.50
2023-05-23T09:02:21.318Z,72.60
2023-05-23T09:04:47.955Z,72.60
2023-05-23T09:07:14.472Z,72.70
2023-05-23T09:09:41.023Z,72.70
2023-05-23T09:12:07.577Z,72.60
2023-05-23T09:14:34.119Z,72.30
2023-05-23T09:17:03.173Z,72.00
2023-05-23T09:19:30.695Z,72.20
2023-05-23T09:21:57.223Z,72.40
2023-05-23T09:24:23.770Z,72.80
2023-05-23T09:26:50.298Z,72.20
2023-05-23T09:29:16.815Z,72.20
2023-05-23T09:31:43.360Z,72.50
2023-05-23T09:34:09.910Z,72.20
2023-05-23T09:36:36.446Z,72.30
2023-05-23T09:39:03.312Z,72.30
2023-05-23T09:41:29.922Z,72.70
2023-05-23T09:43:56.466Z,72.40
2023-05-23T09:46:23.160Z,72.50
2023-05-23T09:48:49.884Z,72.40
2023-05-23T09:51:16.439Z,71.90
2023-05-23T09:53:42.983Z,71.90
2023-05-23T09:56:09.536Z,72.00
2023-05-23T09:58:36.046Z,71.60
2023-05-23T10:01:02.664Z,71.60
2023-05-23T10:03:29.246Z,71.40
2023-05-23T10:05:55.794Z,71.30
2023-05-23T10:08:22.319Z,71.30
2023-05-23T10:10:48.845Z,71.20
2023-05-23T10:13:15.391Z,71.50
2023-05-23T10:15:41.967Z,71.50
2023-05-23T10:18:08.631Z,71.50
2023-05-23T10:20:35.214Z,71.00
2023-05-23T10:23:01.732Z,70.80
2023-05-23T10:25:28.249Z,70.90
2023-05-23T10:27:54.759Z,70.70
2023-05-23T10:30:21.837Z,70.70
2023-05-23T10:32:48.381Z,70.50
2023-05-23T10:35:14.893Z,70.50
2023-05-23T10:37:41.445Z,70.80
2023-05-23T10:40:07.989Z,70.90
2023-05-23T10:42:34.523Z,70.90
2023-05-23T10:45:01.467Z,70.80
2023-05-23T10:47:28.196Z,70.90
2023-05-23T10:49:54.870Z,70.50
2023-05-23T10:52:23.921Z,70.60
2023-05-23T10:54:50.468Z,70.70
2023-05-23T10:57:17.021Z,70.20
2023-05-23T10:59:43.569Z,70.30
2023-05-23T11:02:10.141Z,70.20
2023-05-23T11:04:36.711Z,70.10
2023-05-23T11:07:03.268Z,70.30
2023-05-23T11:09:29.777Z,69.60
2023-05-23T11:11:56.338Z,69.50
2023-05-23T11:14:22.852Z,69.50
2023-05-23T11:16:49.475Z,69.40
2023-05-23T11:19:16.109Z,69.50
2023-05-23T11:21:42.641Z,69.50
2023-05-23T11:24:09.174Z,69.50
2023-05-23T11:26:35.704Z,69.80
2023-05-23T11:29:02.299Z,69.70
2023-05-23T11:31:28.863Z,69.40
2023-05-23T11:33:55.424Z,69.30
2023-05-23T11:36:21.973Z,69.20
2023-05-23T11:38:48.489Z,69.20
2023-05-23T11:41:15.044Z,70.10
2023-05-23T11:43:41.671Z,69.30
2023-05-23T11:46:08.261Z,68.70
2023-05-23T11:48:34.822Z,69.20
2023-05-23T11:51:01.351Z,68.70
2023-05-23T11:53:27.919Z,68.70
2023-05-23T11:55:54.447Z,69.00
2023-05-23T11:58:20.964Z,68.80
2023-05-23T12:00:47.506Z,68.50
2023-05-23T12:03:14.314Z,68.30
2023-05-23T12:05:40.920Z,68.10
2023-05-23T12:08:07.444Z,68.10
2023-05-23T12:10:33.975Z,68.00
2023-05-23T12:13:00.483Z,68.10
2023-05-23T12:15:27.161Z,68.20
2023-05-23T12:17:53.759Z,68.20
2023-05-23T12:20:20.348Z,67.80
2023-05-23T12:22:46.904Z,68.10
2023-05-23T12:25:13.429Z,68.30
2023-05-23T12:27:39.986Z,68.40
2023-05-23T12:30:06.525Z,68.10
2023-05-23T12:32:33.095Z,67.50
2023-05-23T12:34:59.661Z,67.60
2023-05-23T12:37:26.243Z,67.40
2023-05-23T12:39:52.771Z,67.40
2023-05-23T12:42:19.324Z,67.10
2023-05-23T12:44:45.858Z,67.00
2023-05-23T12:47:12.482Z,66.20
2023-05-23T12:49:39.037Z,66.20
2023-05-23T12:52:05.556Z,65.90
2023-05-23T12:54:32.092Z,65.70
2023-05-23T12:56:58.650Z,65.70
2023-05-23T12:59:25.180Z,65.80
2023-05-23T13:01:51.702Z,65.80
2023-05-23T13:04:18.256Z,65.80
2023-05-23T13:06:44.884Z,65.20
2023-05-23T13:09:11.425Z,65.30
2023-05-23T13:11:37.985Z,65.60
2023-05-23T13:14:04.543Z,66.00
2023-05-23T13:16:31.104Z,65.40
2023-05-23T13:18:57.680Z,63.80
2023-05-23T13:21:24.245Z,64.30
2023-05-23T13:23:50.785Z,64.10
2023-05-23T13:26:17.300Z,64.40
2023-05-23T13:28:43.850Z,64.30
2023-05-23T13:31:10.395Z,64.70
2023-05-23T13:33:37.012Z,64.40
2023-05-23T13:36:03.631Z,64.60
2023-05-23T13:38:30.162Z,65.10
2023-05-23T13:40:56.696Z,64.50
2023-05-23T13:43:23.264Z,64.30
2023-05-23T13:45:49.838Z,64.30
2023-05-23T13:48:16.451Z,64.60
2023-05-23T13:50:43.292Z,65.50
2023-05-23T13:53:10.080Z,64.60
2023-05-23T13:55:36.597Z,64.70
2023-05-23T13:58:03.140Z,65.00
2023-05-23T14:00:29.670Z,64.70
2023-05-23T14:02:56.258Z,64.70
2023-05-23T14:05:22.879Z,64.70
2023-05-23T14:07:49.467Z,63.90
2023-05-23T14:10:16.031Z,63.10
2023-05-23T14:12:42.586Z,64.30
2023-05-23T14:15:09.128Z,64.50
2023-05-23T14:17:35.665Z,63.90
2023-05-23T14:20:02.255Z,64.20
2023-05-23T14:22:28.797Z,64.40
2023-05-23T14:24:55.321Z,64.00
2023-05-23T14:27:21.844Z,64.10
2023-05-23T14:29:48.376Z,63.90
2023-05-23T14:32:14.998Z,63.90
2023-05-23T14:34:41.574Z,63.80
2023-05-23T14:37:08.127Z,63.60
2023-05-23T14:39:34.664Z,63.60
2023-05-23T14:42:01.204Z,63.90
2023-05-23T14:44:27.773Z,64.10
2023-05-23T14:46:54.354Z,63.80
2023-05-23T14:49:20.887Z,62.70
2023-05-23T14:51:51.654Z,62.20
2023-05-23T14:54:18.579Z,61.00
2023-05-23T14:56:45.228Z,61.20
2023-05-23T14:59:11.793Z,62.70
2023-05-23T15:01:40.111Z,62.80
2023-05-23T15:04:06.908Z,62.30
2023-05-23T15:06:33.452Z,62.30
2023-05-23T15:08:59.970Z,62.50
2023-05-23T15:11:27.644Z,63.40
2023-05-23T15:13:54.400Z,62.60
2023-05-23T15:16:20.977Z,62.60
2023-05-23T15:18:47.840Z,62.60
2023-05-23T15:21:14.548Z,62.50
2023-05-23T15:23:41.091Z,62.20
2023-05-23T15:26:07.671Z,62.30
2023-05-23T15:28:34.213Z,62.40
2023-05-23T15:31:00.750Z,62.20
2023-05-23T15:33:27.438Z,61.70
2023-05-23T15:35:54.097Z,62.00
2023-05-23T15:38:20.655Z,62.00
2023-05-23T15:40:47.171Z,62.00
2023-05-23T15:43:13.716Z,61.90
2023-05-23T15:45:40.277Z,61.80
2023-05-23T15:48:06.890Z,62.70
2023-05-23T15:50:33.456Z,61.90
2023-05-23T15:52:59.972Z,61.80
2023-05-23T15:55:26.529Z,62.00
2023-05-23T15:57:53.096Z,61.70
2023-05-23T16:00:19.621Z,61.80
2023-05-23T16:02:46.208Z,62.10
2023-05-23T16:05:12.849Z,61.90
2023-05-23T16:07:39.408Z,61.90
2023-05-23T16:10:05.951Z,62.20
2023-05-23T16:12:32.509Z,61.70
2023-05-23T16:15:04.115Z,62.80
2023-05-23T16:17:30.631Z,61.90
2023-05-23T16:19:57.230Z,61.60
2023-05-23T16:22:23.727Z,61.80
2023-05-23T16:24:50.277Z,62.00
2023-05-23T16:27:16.798Z,61.90
2023-05-23T16:29:43.342Z,61.90
2023-05-23T16:32:09.965Z,62.20
2023-05-23T16:34:36.580Z,61.40
2023-05-23T16:37:03.150Z,61.60
2023-05-23T16:39:29.690Z,62.30
2023-05-23T16:41:57.527Z,61.30
2023-05-23T16:44:26.151Z,61.00
2023-05-23T16:46:52.710Z,60.90
2023-05-23T16:49:19.276Z,60.10
2023-05-23T16:51:48.392Z,60.30
2023-05-23T16:54:15.267Z,60.60
2023-05-23T16:56:41.803Z,59.90
2023-05-23T16:59:08.337Z,59.70
2023-05-23T17:01:34.931Z,59.80
2023-05-23T17:04:01.532Z,59.40
2023-05-23T17:06:28.098Z,59.90
2023-05-23T17:08:54.621Z,59.70
2023-05-23T17:11:21.160Z,59.40
2023-05-23T17:13:47.692Z,59.50
2023-05-23T17:16:14.295Z,59.20
2023-05-23T17:18:40.920Z,59.10
2023-05-23T17:21:07.432Z,59.20
2023-05-23T17:23:33.948Z,59.30
2023-05-23T17:26:00.501Z,59.40
2023-05-23T17:28:27.024Z,59.20
2023-05-23T17:30:53.587Z,59.00
2023-05-23T17:33:20.124Z,59.00
2023-05-23T17:35:52.210Z,59.20
2023-05-23T17:38:18.762Z,59.10
2023-05-23T17:40:45.642Z,59.30
2023-05-23T17:43:12.321Z,59.10
2023-05-23T17:45:38.834Z,59.10
2023-05-23T17:48:05.383Z,60.00
2023-05-23T17:50:31.947Z,60.10
2023-05-23T17:52:58.517Z,59.90
2023-05-23T17:55:25.062Z,59.80
2023-05-23T17:57:51.563Z,59.20
2023-05-23T18:00:22.237Z,59.20
2023-05-23T18:02:48.997Z,59.60
2023-05-23T18:05:15.585Z,59.90
2023-05-23T18:07:46.237Z,59.70
2023-05-23T18:10:12.934Z,59.80
2023-05-23T18:12:39.528Z,59.90
2023-05-23T18:15:06.123Z,60.00
2023-05-23T18:17:32.911Z,60.00
2023-05-23T18:19:59.527Z,59.70
2023-05-23T18:22:26.076Z,60.00
2023-05-23T18:24:52.615Z,60.40
2023-05-23T18:27:19.130Z,60.00
2023-05-23T18:29:45.659Z,60.20
2023-05-23T18:32:12.216Z,60.60
2023-05-23T18:34:38.742Z,60.60
2023-05-23T18:37:05.279Z,60.70
2023-05-23T18:39:31.779Z,60.70
2023-05-23T18:41:58.313Z,60.70
2023-05-23T18:44:24.856Z,60.90
2023-05-23T18:46:51.415Z,61.00
2023-05-23T18:49:18.027Z,61.20
2023-05-23T18:51:44.559Z,61.40
2023-05-23T18:54:11.088Z,61.50
2023-05-23T18:56:37.598Z,62.00
2023-05-23T18:59:04.128Z,62.10
2023-05-23T19:01:30.724Z,62.20
2023-05-23T19:03:57.348Z,62.10
2023-05-23T19:06:25.067Z,62.00
2023-05-23T19:08:51.587Z,62.10
2023-05-23T19:11:18.105Z,62.20
2023-05-23T19:13:44.644Z,62.20
2023-05-23T19:16:11.163Z,62.20
2023-05-23T19:18:37.734Z,62.10
2023-05-23T19:21:04.282Z,62.10
2023-05-23T19:23:30.819Z,62.10
2023-05-23T19:25:57.353Z,62.00
2023-05-23T19:28:23.859Z,61.70
2023-05-23T19:30:50.405Z,61.60
2023-05-23T19:33:16.946Z,61.20
2023-05-23T19:35:43.497Z,61.20
2023-05-23T19:38:10.038Z,61.30
2023-05-23T19:40:36.563Z,61.40
2023-05-23T19:43:03.115Z,62.00
2023-05-23T19:45:29.652Z,61.20
2023-05-23T19:47:56.192Z,61.40
2023-05-23T19:50:22.769Z,61.50
2023-05-23T19:52:49.326Z,61.50
2023-05-23T19:55:15.854Z,61.40
2023-05-23T19:57:42.376Z,61.50
2023-05-23T20:00:08.937Z,61.50
2023-05-23T20:02:35.514Z,61.40
2023-05-23T20:05:02.063Z,61.50
2023-05-23T20:07:28.593Z,61.30
2023-05-23T20:09:55.116Z,61.40
2023-05-23T20:12:21.683Z,61.40
2023-05-23T20:14:48.215Z,60.90
2023-05-23T20:17:14.741Z,60.90
2023-05-23T20:19:41.325Z,60.80
2023-05-23T20:22:07.893Z,60.40
2023-05-23T20:24:34.448Z,60.40
2023-05-23T20:27:00.995Z,60.30
2023-05-23T20:29:27.523Z,60.40
2023-05-23T20:31:54.068Z,60.50
2023-05-23T20:34:20.652Z,60.50
2023-05-23T20:36:47.184Z,60.40
2023-05-23T20:39:13.721Z,60.10
2023-05-23T20:41:40.262Z,60.30
2023-05-23T20:44:06.801Z,60.00
2023-05-23T20:46:33.355Z,59.90
2023-05-23T20:48:59.963Z,60.00
2023-05-23T20:51:26.501Z,59.80
2023-05-23T20:53:53.058Z,59.90
2023-05-23T20:56:19.607Z,60.00
2023-05-23T20:58:46.140Z,59.80
2023-05-23T21:01:12.716Z,59.60
2023-05-23T21:03:39.343Z,59.60
2023-05-23T21:06:05.859Z,59.40
2023-05-23T21:08:34.504Z,59.30
2023-05-23T21:11:01.419Z,59.40
2023-05-23T21:13:27.950Z,59.20
2023-05-23T21:15:54.498Z,59.20
2023-05-23T21:18:21.046Z,59.50
2023-05-23T21:20:47.581Z,59.30
2023-05-23T21:23:14.095Z,58.70
2023-05-23T21:25:40.637Z,58.90
2023-05-23T21:28:07.165Z,59.00
2023-05-23T21:30:33.704Z,58.90
2023-05-23T21:33:00.373Z,59.20
2023-05-23T21:35:26.970Z,59.10
2023-05-23T21:37:53.486Z,58.60
2023-05-23T21:40:19.996Z,58.50
2023-05-23T21:42:46.517Z,58.40
2023-05-23T21:45:13.033Z,58.50
2023-05-23T21:47:39.598Z,58.40
2023-05-23T21:50:06.196Z,58.20
2023-05-23T21:52:32.736Z,58.10
2023-05-23T21:54:59.252Z,58.20
2023-05-23T21:57:25.789Z,58.10
2023-05-23T21:59:52.321Z,58.00
2023-05-23T22:02:18.842Z,57.90
2023-05-23T22:04:45.391Z,57.80
2023-05-23T22:07:11.905Z,57.80
2023-05-23T22:09:38.435Z,57.60
2023-05-23T22:12:04.963Z,57.60
2023-05-23T22:14:31.492Z,57.30
2023-05-23T22:16:58.013Z,57.30
2023-05-23T22:19:24.616Z,57.30
2023-05-23T22:21:51.175Z,57.30
2023-05-23T22:24:17.694Z,57.30
2023-05-23T22:26:44.224Z,57.10
2023-05-23T22:29:10.735Z,57.30
2023-05-23T22:31:37.276Z,57.30
2023-05-23T22:34:03.851Z,57.30
2023-05-23T22:36:30.383Z,57.20
2023-05-23T22:38:56.915Z,57.20
2023-05-23T22:41:23.486Z,57.80
2023-05-23T22:43:50.113Z,56.90
2023-05-23T22:46:16.721Z,56.90
2023-05-23T22:48:43.283Z,57.10
2023-05-23T22:51:09.861Z,56.70
2023-05-23T22:53:36.394Z,56.50
2023-05-23T22:56:02.923Z,56.70
2023-05-23T22:58:29.429Z,56.70
2023-05-23T23:00:56.017Z,56.80
2023-05-23T23:03:22.777Z,56.60
2023-05-23T23:05:49.434Z,56.60
2023-05-23T23:08:15.963Z,56.50
2023-05-23T23:10:42.665Z,56.70
2023-05-23T23:13:09.337Z,56.30
2023-05-23T23:15:35.873Z,56.40
2023-05-23T23:18:02.400Z,56.30
2023-05-23T23:20:29.135Z,56.30
2023-05-23T23:22:55.736Z,56.40
2023-05-23T23:25:22.270Z,56.10
2023-05-23T23:27:48.805Z,56.20
2023-05-23T23:30:15.334Z,56.10
2023-05-23T23:32:41.921Z,56.20
2023-05-23T23:35:08.462Z,56.20
2023-05-23T23:37:35.013Z,56.10
2023-05-23T23:40:01.531Z,56.10
2023-05-23T23:42:28.048Z,56.20
2023-05-23T23:44:54.571Z,56.00
2023-05-23T23:47:21.228Z,56.00
2023-05-23T23:49:47.760Z,56.00
2023-05-23T23:52:14.283Z,56.10
2023-05-23T23:54:40.818Z,55.90
2023-05-23T23:57:07.346Z,56.00
2023-05-23T23:59:33.861Z,55.80
